sensor_id;sensor_type;location;lat;lon;timestamp;temperature;humidity
48019;DHT22;33786;48.690;9.562;2023-07-31T00:02:19;12.90;99.90
48019;DHT22;33786;48.690;9.562;2023-07-31T00:04:46;12.80;99.90
48019;DHT22;33786;48.690;9.562;2023-07-31T00:07:13;12.90;99.90
48019;DHT22;33786;48.690;9.562;2023-07-31T00:09:39;12.90;99.90
48019;DHT22;33786;48.690;9.562;2023-07-31T00:12:06;12.90;99.90
48019;DHT22;33786;48.690;9.562;2023-07-31T00:14:33;12.80;99.90
48019;DHT22;33786;48.690;9.562;2023-07-31T00:17:00;12.80;99.90
48019;DHT22;33786;48.690;9.562;2023-07-31T00:19:26;12.70;99.90
48019;DHT22;33786;48.690;9.562;2023-07-31T00:21:53;12.70;99.90
48019;DHT22;33786;48.690;9.562;2023-07-31T00:24:20;12.70;99.90
48019;DHT22;33786;48.690;9.562;2023-07-31T00:26:46;12.70;99.90
48019;DHT22;33786;48.690;9.562;2023-07-31T00:29:13;12.70;99.90
48019;DHT22;33786;48.690;9.562;2023-07-31T00:31:40;12.70;99.90
48019;DHT22;33786;48.690;9.562;2023-07-31T00:34:07;12.60;99.90
48019;DHT22;33786;48.690;9.562;2023-07-31T00:36:33;12.50;99.90
48019;DHT22;33786;48.690;9.562;2023-07-31T00:39:00;12.50;99.90
48019;DHT22;33786;48.690;9.562;2023-07-31T00:41:27;12.40;99.90
48019;DHT22;33786;48.690;9.562;2023-07-31T00:43:53;12.40;99.90
48019;DHT22;33786;48.690;9.562;2023-07-31T00:46:20;12.40;99.90
48019;DHT22;33786;48.690;9.562;2023-07-31T00:48:47;12.30;99.90
48019;DHT22;33786;48.690;9.562;2023-07-31T00:51:14;12.20;99.90
48019;DHT22;33786;48.690;9.562;2023-07-31T00:53:41;12.20;99.90
48019;DHT22;33786;48.690;9.562;2023-07-31T00:56:10;12.20;99.90
48019;DHT22;33786;48.690;9.562;2023-07-31T00:58:37;12.20;99.90
48019;DHT22;33786;48.690;9.562;2023-07-31T01:01:04;12.10;99.90
48019;DHT22;33786;48.690;9.562;2023-07-31T01:03:31;12.10;99.90
48019;DHT22;33786;48.690;9.562;2023-07-31T01:11:00;12.10;99.90
48019;DHT22;33786;48.690;9.562;2023-07-31T01:13:28;12.00;99.90
48019;DHT22;33786;48.690;9.562;2023-07-31T01:15:56;12.00;99.90
48019;DHT22;33786;48.690;9.562;2023-07-31T01:18:22;12.00;99.90
48019;DHT22;33786;48.690;9.562;2023-07-31T01:20:53;11.90;99.90
48019;DHT22;33786;48.690;9.562;2023-07-31T01:23:48;11.90;99.90
48019;DHT22;33786;48.690;9.562;2023-07-31T01:26:21;11.80;99.90
48019;DHT22;33786;48.690;9.562;2023-07-31T01:31:20;11.80;99.90
48019;DHT22;33786;48.690;9.562;2023-07-31T01:33:48;11.60;99.90
48019;DHT22;33786;48.690;9.562;2023-07-31T01:36:15;11.70;99.90
48019;DHT22;33786;48.690;9.562;2023-07-31T01:38:42;11.70;99.90
48019;DHT22;33786;48.690;9.562;2023-07-31T01:41:08;11.60;99.90
48019;DHT22;33786;48.690;9.562;2023-07-31T01:43:35;11.70;99.90
48019;DHT22;33786;48.690;9.562;2023-07-31T01:46:02;11.60;99.90
48019;DHT22;33786;48.690;9.562;2023-07-31T01:48:29;11.60;99.90
48019;DHT22;33786;48.690;9.562;2023-07-31T01:50:55;11.70;99.90
48019;DHT22;33786;48.690;9.562;2023-07-31T01:53:22;11.70;99.90
48019;DHT22;33786;48.690;9.562;2023-07-31T01:55:49;11.80;99.90
48019;DHT22;33786;48.690;9.562;2023-07-31T01:58:15;11.80;99.90
48019;DHT22;33786;48.690;9.562;2023-07-31T02:00:42;11.80;99.90
48019;DHT22;33786;48.690;9.562;2023-07-31T02:03:09;11.80;99.90
48019;DHT22;33786;48.690;9.562;2023-07-31T02:05:36;11.80;99.90
48019;DHT22;33786;48.690;9.562;2023-07-31T02:08:03;11.80;99.90
48019;DHT22;33786;48.690;9.562;2023-07-31T02:10:32;11.70;99.90
48019;DHT22;33786;48.690;9.562;2023-07-31T02:12:58;11.70;99.90
48019;DHT22;33786;48.690;9.562;2023-07-31T02:15:25;11.60;99.90
48019;DHT22;33786;48.690;9.562;2023-07-31T02:17:52;11.50;99.90
48019;DHT22;33786;48.690;9.562;2023-07-31T02:20:19;11.50;99.90
48019;DHT22;33786;48.690;9.562;2023-07-31T02:22:45;11.40;99.90
48019;DHT22;33786;48.690;9.562;2023-07-31T02:25:12;11.40;99.90
48019;DHT22;33786;48.690;9.562;2023-07-31T02:27:39;11.40;99.90
48019;DHT22;33786;48.690;9.562;2023-07-31T02:30:06;11.30;99.90
48019;DHT22;33786;48.690;9.562;2023-07-31T02:32:33;11.40;99.90
48019;DHT22;33786;48.690;9.562;2023-07-31T02:34:59;11.30;99.90
48019;DHT22;33786;48.690;9.562;2023-07-31T02:37:26;11.30;99.90
48019;DHT22;33786;48.690;9.562;2023-07-31T02:39:55;11.30;99.90
48019;DHT22;33786;48.690;9.562;2023-07-31T02:42:21;11.30;99.90
48019;DHT22;33786;48.690;9.562;2023-07-31T02:44:48;11.20;99.90
48019;DHT22;33786;48.690;9.562;2023-07-31T02:47:15;11.20;99.90
48019;DHT22;33786;48.690;9.562;2023-07-31T02:49:42;11.20;99.90
48019;DHT22;33786;48.690;9.562;2023-07-31T02:52:09;11.10;99.90
48019;DHT22;33786;48.690;9.562;2023-07-31T02:54:36;11.10;99.90
48019;DHT22;33786;48.690;9.562;2023-07-31T02:57:03;11.20;99.90
48019;DHT22;33786;48.690;9.562;2023-07-31T02:59:30;11.10;99.90
48019;DHT22;33786;48.690;9.562;2023-07-31T03:01:56;11.10;99.90
48019;DHT22;33786;48.690;9.562;2023-07-31T03:04:23;11.10;99.90
48019;DHT22;33786;48.690;9.562;2023-07-31T03:06:50;11.00;99.90
48019;DHT22;33786;48.690;9.562;2023-07-31T03:09:17;11.00;99.90
48019;DHT22;33786;48.690;9.562;2023-07-31T03:11:43;11.00;99.90
48019;DHT22;33786;48.690;9.562;2023-07-31T03:14:10;11.00;99.90
48019;DHT22;33786;48.690;9.562;2023-07-31T03:16:37;11.00;99.90
48019;DHT22;33786;48.690;9.562;2023-07-31T03:19:04;11.20;99.90
48019;DHT22;33786;48.690;9.562;2023-07-31T03:21:31;10.90;99.90
48019;DHT22;33786;48.690;9.562;2023-07-31T03:23:57;10.80;99.90
48019;DHT22;33786;48.690;9.562;2023-07-31T03:26:24;10.80;99.90
48019;DHT22;33786;48.690;9.562;2023-07-31T03:28:51;10.80;99.90
48019;DHT22;33786;48.690;9.562;2023-07-31T03:31:18;10.80;99.90
48019;DHT22;33786;48.690;9.562;2023-07-31T03:33:44;10.80;99.90
48019;DHT22;33786;48.690;9.562;2023-07-31T03:36:11;10.80;99.90
48019;DHT22;33786;48.690;9.562;2023-07-31T03:38:38;10.80;99.90
48019;DHT22;33786;48.690;9.562;2023-07-31T03:41:04;10.70;99.90
48019;DHT22;33786;48.690;9.562;2023-07-31T03:43:32;10.80;99.90
48019;DHT22;33786;48.690;9.562;2023-07-31T03:46:02;10.70;99.90
48019;DHT22;33786;48.690;9.562;2023-07-31T03:48:29;10.80;99.90
48019;DHT22;33786;48.690;9.562;2023-07-31T03:50:56;10.80;99.90
48019;DHT22;33786;48.690;9.562;2023-07-31T03:53:22;10.80;99.90
48019;DHT22;33786;48.690;9.562;2023-07-31T03:55:49;10.80;99.90
48019;DHT22;33786;48.690;9.562;2023-07-31T03:58:16;10.90;99.90
48019;DHT22;33786;48.690;9.562;2023-07-31T04:00:43;10.90;99.90
48019;DHT22;33786;48.690;9.562;2023-07-31T04:03:10;10.90;99.90
48019;DHT22;33786;48.690;9.562;2023-07-31T04:05:37;11.00;99.90
48019;DHT22;33786;48.690;9.562;2023-07-31T04:08:04;11.00;99.90
48019;DHT22;33786;48.690;9.562;2023-07-31T04:10:31;11.10;99.90
48019;DHT22;33786;48.690;9.562;2023-07-31T04:13:00;11.10;99.90
48019;DHT22;33786;48.690;9.562;2023-07-31T04:15:27;11.20;99.90
48019;DHT22;33786;48.690;9.562;2023-07-31T04:17:53;11.40;99.90
48019;DHT22;33786;48.690;9.562;2023-07-31T04:20:20;11.50;99.90
48019;DHT22;33786;48.690;9.562;2023-07-31T04:22:48;11.70;99.90
48019;DHT22;33786;48.690;9.562;2023-07-31T04:25:14;11.90;99.90
48019;DHT22;33786;48.690;9.562;2023-07-31T04:27:41;12.40;99.90
48019;DHT22;33786;48.690;9.562;2023-07-31T04:30:08;13.20;99.90
48019;DHT22;33786;48.690;9.562;2023-07-31T04:32:35;14.20;99.90
48019;DHT22;33786;48.690;9.562;2023-07-31T04:35:02;14.60;99.90
48019;DHT22;33786;48.690;9.562;2023-07-31T04:37:29;14.70;99.90
48019;DHT22;33786;48.690;9.562;2023-07-31T04:39:56;15.30;99.90
48019;DHT22;33786;48.690;9.562;2023-07-31T04:42:22;15.70;99.90
48019;DHT22;33786;48.690;9.562;2023-07-31T04:44:49;15.80;99.90
48019;DHT22;33786;48.690;9.562;2023-07-31T04:47:16;15.50;99.90
48019;DHT22;33786;48.690;9.562;2023-07-31T04:49:43;15.30;99.90
48019;DHT22;33786;48.690;9.562;2023-07-31T04:52:09;15.10;99.90
48019;DHT22;33786;48.690;9.562;2023-07-31T04:54:36;14.90;99.90
48019;DHT22;33786;48.690;9.562;2023-07-31T04:57:03;15.10;99.90
48019;DHT22;33786;48.690;9.562;2023-07-31T04:59:29;15.60;99.90
48019;DHT22;33786;48.690;9.562;2023-07-31T05:01:58;16.00;99.90
48019;DHT22;33786;48.690;9.562;2023-07-31T05:04:25;15.90;99.90
48019;DHT22;33786;48.690;9.562;2023-07-31T05:06:51;15.60;99.90
48019;DHT22;33786;48.690;9.562;2023-07-31T05:09:18;15.40;99.90
48019;DHT22;33786;48.690;9.562;2023-07-31T05:11:45;15.40;99.90
48019;DHT22;33786;48.690;9.562;2023-07-31T05:14:12;15.40;99.90
48019;DHT22;33786;48.690;9.562;2023-07-31T05:16:38;15.30;99.90
48019;DHT22;33786;48.690;9.562;2023-07-31T05:19:06;15.20;99.90
48019;DHT22;33786;48.690;9.562;2023-07-31T05:21:33;15.10;99.90
48019;DHT22;33786;48.690;9.562;2023-07-31T05:23:59;14.90;99.90
48019;DHT22;33786;48.690;9.562;2023-07-31T05:26:26;14.80;99.90
48019;DHT22;33786;48.690;9.562;2023-07-31T05:28:53;14.80;99.90
48019;DHT22;33786;48.690;9.562;2023-07-31T05:31:20;14.90;99.90
48019;DHT22;33786;48.690;9.562;2023-07-31T05:33:49;14.90;99.90
48019;DHT22;33786;48.690;9.562;2023-07-31T05:36:16;14.90;99.90
48019;DHT22;33786;48.690;9.562;2023-07-31T05:38:43;14.80;99.90
48019;DHT22;33786;48.690;9.562;2023-07-31T05:41:11;14.90;99.90
48019;DHT22;33786;48.690;9.562;2023-07-31T05:43:38;15.00;99.90
48019;DHT22;33786;48.690;9.562;2023-07-31T05:46:05;14.90;99.90
48019;DHT22;33786;48.690;9.562;2023-07-31T05:48:33;14.90;99.90
48019;DHT22;33786;48.690;9.562;2023-07-31T05:51:03;15.00;99.90
48019;DHT22;33786;48.690;9.562;2023-07-31T05:53:29;15.20;99.90
48019;DHT22;33786;48.690;9.562;2023-07-31T05:55:56;15.30;99.90
48019;DHT22;33786;48.690;9.562;2023-07-31T05:58:23;15.50;99.90
48019;DHT22;33786;48.690;9.562;2023-07-31T06:00:49;15.70;99.90
48019;DHT22;33786;48.690;9.562;2023-07-31T06:03:16;15.80;99.90
48019;DHT22;33786;48.690;9.562;2023-07-31T06:05:43;16.10;99.90
48019;DHT22;33786;48.690;9.562;2023-07-31T06:08:10;16.30;99.90
48019;DHT22;33786;48.690;9.562;2023-07-31T06:10:37;16.60;99.90
48019;DHT22;33786;48.690;9.562;2023-07-31T06:13:04;17.20;99.90
48019;DHT22;33786;48.690;9.562;2023-07-31T06:15:30;19.20;99.90
48019;DHT22;33786;48.690;9.562;2023-07-31T06:17:57;21.30;99.90
48019;DHT22;33786;48.690;9.562;2023-07-31T06:20:24;23.50;96.50
48019;DHT22;33786;48.690;9.562;2023-07-31T06:22:51;24.70;93.60
48019;DHT22;33786;48.690;9.562;2023-07-31T06:25:17;24.10;92.40
48019;DHT22;33786;48.690;9.562;2023-07-31T06:27:44;23.00;94.10
48019;DHT22;33786;48.690;9.562;2023-07-31T06:30:11;23.20;93.90
48019;DHT22;33786;48.690;9.562;2023-07-31T06:32:38;24.10;92.70
48019;DHT22;33786;48.690;9.562;2023-07-31T06:35:05;24.80;91.70
48019;DHT22;33786;48.690;9.562;2023-07-31T06:37:32;24.50;91.90
48019;DHT22;33786;48.690;9.562;2023-07-31T06:40:01;24.00;92.00
48019;DHT22;33786;48.690;9.562;2023-07-31T06:42:28;23.50;92.70
48019;DHT22;33786;48.690;9.562;2023-07-31T06:44:55;23.30;93.50
48019;DHT22;33786;48.690;9.562;2023-07-31T06:47:21;22.70;94.00
48019;DHT22;33786;48.690;9.562;2023-07-31T06:49:48;22.90;93.70
48019;DHT22;33786;48.690;9.562;2023-07-31T06:52:15;22.60;94.50
48019;DHT22;33786;48.690;9.562;2023-07-31T06:54:41;22.80;94.30
48019;DHT22;33786;48.690;9.562;2023-07-31T06:57:08;22.50;94.50
48019;DHT22;33786;48.690;9.562;2023-07-31T06:59:35;22.60;94.50
48019;DHT22;33786;48.690;9.562;2023-07-31T07:02:02;22.30;95.10
48019;DHT22;33786;48.690;9.562;2023-07-31T07:04:32;22.30;94.80
48019;DHT22;33786;48.690;9.562;2023-07-31T07:06:59;22.20;95.10
48019;DHT22;33786;48.690;9.562;2023-07-31T07:09:25;21.70;96.10
48019;DHT22;33786;48.690;9.562;2023-07-31T07:11:52;21.50;96.40
48019;DHT22;33786;48.690;9.562;2023-07-31T07:14:19;21.50;97.10
48019;DHT22;33786;48.690;9.562;2023-07-31T07:16:50;21.70;97.60
48019;DHT22;33786;48.690;9.562;2023-07-31T07:19:16;23.00;95.70
48019;DHT22;33786;48.690;9.562;2023-07-31T07:21:43;24.10;93.70
48019;DHT22;33786;48.690;9.562;2023-07-31T07:24:10;25.70;91.50
48019;DHT22;33786;48.690;9.562;2023-07-31T07:26:37;26.60;88.00
48019;DHT22;33786;48.690;9.562;2023-07-31T07:29:04;26.70;88.20
48019;DHT22;33786;48.690;9.562;2023-07-31T07:31:33;27.70;86.60
48019;DHT22;33786;48.690;9.562;2023-07-31T07:34:00;28.20;81.40
48019;DHT22;33786;48.690;9.562;2023-07-31T07:36:28;27.70;83.50
48019;DHT22;33786;48.690;9.562;2023-07-31T07:38:55;27.30;83.10
48019;DHT22;33786;48.690;9.562;2023-07-31T07:41:22;26.80;83.20
48019;DHT22;33786;48.690;9.562;2023-07-31T07:43:49;26.60;83.30
48019;DHT22;33786;48.690;9.562;2023-07-31T07:46:16;27.00;82.20
48019;DHT22;33786;48.690;9.562;2023-07-31T07:48:43;26.20;83.50
48019;DHT22;33786;48.690;9.562;2023-07-31T07:51:09;25.30;86.20
48019;DHT22;33786;48.690;9.562;2023-07-31T07:53:36;25.10;85.90
48019;DHT22;33786;48.690;9.562;2023-07-31T07:56:03;24.70;86.80
48019;DHT22;33786;48.690;9.562;2023-07-31T07:58:30;25.10;86.80
48019;DHT22;33786;48.690;9.562;2023-07-31T08:00:56;25.40;85.80
48019;DHT22;33786;48.690;9.562;2023-07-31T08:03:23;26.20;85.30
48019;DHT22;33786;48.690;9.562;2023-07-31T08:05:50;27.20;83.30
48019;DHT22;33786;48.690;9.562;2023-07-31T08:08:17;28.20;80.80
48019;DHT22;33786;48.690;9.562;2023-07-31T08:10:44;29.10;78.80
48019;DHT22;33786;48.690;9.562;2023-07-31T08:13:11;29.70;77.30
48019;DHT22;33786;48.690;9.562;2023-07-31T08:15:38;29.10;77.20
48019;DHT22;33786;48.690;9.562;2023-07-31T08:18:07;28.20;78.30
48019;DHT22;33786;48.690;9.562;2023-07-31T08:20:34;28.60;80.00
48019;DHT22;33786;48.690;9.562;2023-07-31T08:23:00;29.60;79.10
48019;DHT22;33786;48.690;9.562;2023-07-31T08:25:28;29.50;75.50
48019;DHT22;33786;48.690;9.562;2023-07-31T08:27:55;28.20;77.50
48019;DHT22;33786;48.690;9.562;2023-07-31T08:30:22;26.80;78.40
48019;DHT22;33786;48.690;9.562;2023-07-31T08:32:49;25.90;81.00
48019;DHT22;33786;48.690;9.562;2023-07-31T08:35:16;26.00;82.80
48019;DHT22;33786;48.690;9.562;2023-07-31T08:37:43;25.40;82.30
48019;DHT22;33786;48.690;9.562;2023-07-31T08:40:10;25.20;84.30
48019;DHT22;33786;48.690;9.562;2023-07-31T08:42:43;25.60;83.30
48019;DHT22;33786;48.690;9.562;2023-07-31T08:45:13;25.70;82.80
48019;DHT22;33786;48.690;9.562;2023-07-31T08:47:40;26.10;81.50
48019;DHT22;33786;48.690;9.562;2023-07-31T08:50:07;25.70;82.30
48019;DHT22;33786;48.690;9.562;2023-07-31T08:52:34;25.60;83.40
48019;DHT22;33786;48.690;9.562;2023-07-31T08:55:01;26.00;82.20
48019;DHT22;33786;48.690;9.562;2023-07-31T08:57:27;26.10;81.20
48019;DHT22;33786;48.690;9.562;2023-07-31T08:59:55;25.80;83.40
48019;DHT22;33786;48.690;9.562;2023-07-31T09:02:23;25.80;83.40
48019;DHT22;33786;48.690;9.562;2023-07-31T09:04:52;25.70;82.00
48019;DHT22;33786;48.690;9.562;2023-07-31T09:07:18;25.90;82.30
48019;DHT22;33786;48.690;9.562;2023-07-31T09:09:45;25.80;83.60
48019;DHT22;33786;48.690;9.562;2023-07-31T09:12:12;25.60;81.50
48019;DHT22;33786;48.690;9.562;2023-07-31T09:14:39;25.70;83.40
48019;DHT22;33786;48.690;9.562;2023-07-31T09:17:06;26.00;81.40
48019;DHT22;33786;48.690;9.562;2023-07-31T09:19:34;26.50;79.60
48019;DHT22;33786;48.690;9.562;2023-07-31T09:22:03;26.20;80.50
48019;DHT22;33786;48.690;9.562;2023-07-31T09:24:31;26.00;81.00
48019;DHT22;33786;48.690;9.562;2023-07-31T09:26:58;25.70;81.10
48019;DHT22;33786;48.690;9.562;2023-07-31T09:29:26;26.00;80.50
48019;DHT22;33786;48.690;9.562;2023-07-31T09:31:53;26.00;80.70
48019;DHT22;33786;48.690;9.562;2023-07-31T09:34:28;26.10;81.20
48019;DHT22;33786;48.690;9.562;2023-07-31T09:36:57;26.80;80.20
48019;DHT22;33786;48.690;9.562;2023-07-31T09:39:24;27.30;81.00
48019;DHT22;33786;48.690;9.562;2023-07-31T09:41:54;27.30;76.80
48019;DHT22;33786;48.690;9.562;2023-07-31T09:44:39;27.20;79.30
48019;DHT22;33786;48.690;9.562;2023-07-31T09:47:21;27.30;77.60
48019;DHT22;33786;48.690;9.562;2023-07-31T09:49:51;26.70;78.00
48019;DHT22;33786;48.690;9.562;2023-07-31T09:52:18;26.40;78.60
48019;DHT22;33786;48.690;9.562;2023-07-31T09:54:44;26.00;80.80
48019;DHT22;33786;48.690;9.562;2023-07-31T09:57:11;25.90;79.00
48019;DHT22;33786;48.690;9.562;2023-07-31T09:59:38;25.70;80.40
48019;DHT22;33786;48.690;9.562;2023-07-31T10:02:05;25.50;81.80
48019;DHT22;33786;48.690;9.562;2023-07-31T10:04:35;25.40;81.90
48019;DHT22;33786;48.690;9.562;2023-07-31T10:07:02;25.10;79.60
48019;DHT22;33786;48.690;9.562;2023-07-31T10:09:30;24.70;79.90
48019;DHT22;33786;48.690;9.562;2023-07-31T10:11:59;24.60;80.70
48019;DHT22;33786;48.690;9.562;2023-07-31T10:14:26;24.20;82.50
48019;DHT22;33786;48.690;9.562;2023-07-31T10:16:54;24.30;83.90
48019;DHT22;33786;48.690;9.562;2023-07-31T10:19:22;24.50;83.00
48019;DHT22;33786;48.690;9.562;2023-07-31T10:21:49;24.30;82.40
48019;DHT22;33786;48.690;9.562;2023-07-31T10:24:16;24.10;83.20
48019;DHT22;33786;48.690;9.562;2023-07-31T10:26:45;23.90;82.20
48019;DHT22;33786;48.690;9.562;2023-07-31T10:29:12;24.50;84.90
48019;DHT22;33786;48.690;9.562;2023-07-31T10:31:40;24.90;82.80
48019;DHT22;33786;48.690;9.562;2023-07-31T10:34:07;25.40;83.60
48019;DHT22;33786;48.690;9.562;2023-07-31T10:36:34;25.80;80.90
48019;DHT22;33786;48.690;9.562;2023-07-31T10:39:03;25.60;81.70
48019;DHT22;33786;48.690;9.562;2023-07-31T10:41:31;25.40;80.70
48019;DHT22;33786;48.690;9.562;2023-07-31T10:43:59;25.10;81.70
48019;DHT22;33786;48.690;9.562;2023-07-31T10:46:27;25.20;81.20
48019;DHT22;33786;48.690;9.562;2023-07-31T10:48:58;25.40;81.70
48019;DHT22;33786;48.690;9.562;2023-07-31T10:51:33;25.70;81.10
48019;DHT22;33786;48.690;9.562;2023-07-31T10:54:11;25.60;80.30
48019;DHT22;33786;48.690;9.562;2023-07-31T10:56:38;25.40;83.80
48019;DHT22;33786;48.690;9.562;2023-07-31T10:59:07;25.30;83.50
48019;DHT22;33786;48.690;9.562;2023-07-31T11:04:22;25.70;82.20
48019;DHT22;33786;48.690;9.562;2023-07-31T11:06:57;25.70;82.40
48019;DHT22;33786;48.690;9.562;2023-07-31T11:09:25;24.80;81.10
48019;DHT22;33786;48.690;9.562;2023-07-31T11:11:53;24.60;83.20
48019;DHT22;33786;48.690;9.562;2023-07-31T11:14:21;24.80;84.80
48019;DHT22;33786;48.690;9.562;2023-07-31T11:16:50;24.90;84.10
48019;DHT22;33786;48.690;9.562;2023-07-31T11:19:22;25.10;84.10
48019;DHT22;33786;48.690;9.562;2023-07-31T11:21:53;25.20;81.30
48019;DHT22;33786;48.690;9.562;2023-07-31T11:24:20;25.50;82.50
48019;DHT22;33786;48.690;9.562;2023-07-31T11:26:53;25.80;83.20
48019;DHT22;33786;48.690;9.562;2023-07-31T11:29:20;25.80;80.50
48019;DHT22;33786;48.690;9.562;2023-07-31T11:31:47;25.90;82.70
48019;DHT22;33786;48.690;9.562;2023-07-31T11:34:15;26.00;81.60
48019;DHT22;33786;48.690;9.562;2023-07-31T11:36:52;26.00;82.40
48019;DHT22;33786;48.690;9.562;2023-07-31T11:39:19;26.00;79.10
48019;DHT22;33786;48.690;9.562;2023-07-31T11:41:48;26.10;81.60
48019;DHT22;33786;48.690;9.562;2023-07-31T11:44:15;26.30;82.10
48019;DHT22;33786;48.690;9.562;2023-07-31T11:46:52;26.70;81.30
48019;DHT22;33786;48.690;9.562;2023-07-31T11:49:19;26.40;79.30
48019;DHT22;33786;48.690;9.562;2023-07-31T11:51:47;26.50;79.70
48019;DHT22;33786;48.690;9.562;2023-07-31T11:54:14;26.70;81.30
48019;DHT22;33786;48.690;9.562;2023-07-31T11:56:41;26.50;79.40
48019;DHT22;33786;48.690;9.562;2023-07-31T11:59:10;26.60;81.70
48019;DHT22;33786;48.690;9.562;2023-07-31T12:01:39;26.80;78.60
48019;DHT22;33786;48.690;9.562;2023-07-31T12:04:06;26.70;79.70
48019;DHT22;33786;48.690;9.562;2023-07-31T12:06:34;26.60;81.00
48019;DHT22;33786;48.690;9.562;2023-07-31T12:09:04;26.20;79.50
48019;DHT22;33786;48.690;9.562;2023-07-31T12:11:42;25.80;80.00
48019;DHT22;33786;48.690;9.562;2023-07-31T12:14:19;25.70;80.80
48019;DHT22;33786;48.690;9.562;2023-07-31T12:16:46;25.80;81.20
48019;DHT22;33786;48.690;9.562;2023-07-31T12:19:13;25.40;79.30
48019;DHT22;33786;48.690;9.562;2023-07-31T12:21:39;25.10;81.40
48019;DHT22;33786;48.690;9.562;2023-07-31T12:24:06;25.20;81.90
48019;DHT22;33786;48.690;9.562;2023-07-31T12:26:34;25.00;82.20
48019;DHT22;33786;48.690;9.562;2023-07-31T12:29:01;25.20;82.50
48019;DHT22;33786;48.690;9.562;2023-07-31T12:31:28;25.40;82.30
48019;DHT22;33786;48.690;9.562;2023-07-31T12:33:58;25.50;82.70
48019;DHT22;33786;48.690;9.562;2023-07-31T12:36:28;25.40;81.80
48019;DHT22;33786;48.690;9.562;2023-07-31T12:38:56;25.20;82.90
48019;DHT22;33786;48.690;9.562;2023-07-31T12:41:26;25.10;82.30
48019;DHT22;33786;48.690;9.562;2023-07-31T12:43:53;24.90;82.70
48019;DHT22;33786;48.690;9.562;2023-07-31T12:46:20;24.80;83.60
48019;DHT22;33786;48.690;9.562;2023-07-31T12:48:47;24.80;83.20
48019;DHT22;33786;48.690;9.562;2023-07-31T12:51:14;24.60;83.60
48019;DHT22;33786;48.690;9.562;2023-07-31T12:53:41;24.70;83.90
48019;DHT22;33786;48.690;9.562;2023-07-31T12:56:08;24.80;84.00
48019;DHT22;33786;48.690;9.562;2023-07-31T12:58:35;24.40;84.60
48019;DHT22;33786;48.690;9.562;2023-07-31T13:01:02;24.90;83.40
48019;DHT22;33786;48.690;9.562;2023-07-31T13:03:29;25.20;84.40
48019;DHT22;33786;48.690;9.562;2023-07-31T13:05:56;25.30;81.90
48019;DHT22;33786;48.690;9.562;2023-07-31T13:08:23;25.30;83.00
48019;DHT22;33786;48.690;9.562;2023-07-31T13:10:50;25.30;83.10
48019;DHT22;33786;48.690;9.562;2023-07-31T13:13:17;25.20;83.70
48019;DHT22;33786;48.690;9.562;2023-07-31T13:15:44;25.10;82.80
48019;DHT22;33786;48.690;9.562;2023-07-31T13:18:12;24.50;83.20
48019;DHT22;33786;48.690;9.562;2023-07-31T13:20:38;24.40;83.60
48019;DHT22;33786;48.690;9.562;2023-07-31T13:23:05;24.30;84.70
48019;DHT22;33786;48.690;9.562;2023-07-31T13:25:32;24.20;84.40
48019;DHT22;33786;48.690;9.562;2023-07-31T13:28:00;24.30;84.80
48019;DHT22;33786;48.690;9.562;2023-07-31T13:30:29;24.50;84.70
48019;DHT22;33786;48.690;9.562;2023-07-31T13:32:56;24.70;83.50
48019;DHT22;33786;48.690;9.562;2023-07-31T13:35:23;24.80;84.60
48019;DHT22;33786;48.690;9.562;2023-07-31T13:37:50;24.80;82.90
48019;DHT22;33786;48.690;9.562;2023-07-31T13:40:17;24.80;82.80
48019;DHT22;33786;48.690;9.562;2023-07-31T13:42:43;24.80;83.30
48019;DHT22;33786;48.690;9.562;2023-07-31T13:45:10;24.60;82.30
48019;DHT22;33786;48.690;9.562;2023-07-31T13:47:37;24.70;83.40
48019;DHT22;33786;48.690;9.562;2023-07-31T13:50:05;24.80;84.70
48019;DHT22;33786;48.690;9.562;2023-07-31T13:52:32;24.70;82.80
48019;DHT22;33786;48.690;9.562;2023-07-31T13:54:58;24.80;83.60
48019;DHT22;33786;48.690;9.562;2023-07-31T13:57:25;25.00;83.70
48019;DHT22;33786;48.690;9.562;2023-07-31T13:59:52;25.40;84.30
48019;DHT22;33786;48.690;9.562;2023-07-31T14:02:19;25.50;82.00
48019;DHT22;33786;48.690;9.562;2023-07-31T14:04:46;25.40;82.20
48019;DHT22;33786;48.690;9.562;2023-07-31T14:07:13;25.50;82.50
48019;DHT22;33786;48.690;9.562;2023-07-31T14:09:40;25.60;82.70
48019;DHT22;33786;48.690;9.562;2023-07-31T14:12:07;25.30;81.60
48019;DHT22;33786;48.690;9.562;2023-07-31T14:14:34;25.00;84.50
48019;DHT22;33786;48.690;9.562;2023-07-31T14:17:01;24.80;83.60
48019;DHT22;33786;48.690;9.562;2023-07-31T14:19:28;24.60;83.60
48019;DHT22;33786;48.690;9.562;2023-07-31T14:21:58;24.40;84.80
48019;DHT22;33786;48.690;9.562;2023-07-31T14:24:37;24.10;84.80
48019;DHT22;33786;48.690;9.562;2023-07-31T14:27:03;24.00;85.40
48019;DHT22;33786;48.690;9.562;2023-07-31T14:29:30;23.90;86.20
48019;DHT22;33786;48.690;9.562;2023-07-31T14:32:00;23.90;86.50
48019;DHT22;33786;48.690;9.562;2023-07-31T14:34:27;23.80;87.40
48019;DHT22;33786;48.690;9.562;2023-07-31T14:36:54;23.80;87.00
48019;DHT22;33786;48.690;9.562;2023-07-31T14:39:21;24.00;86.70
48019;DHT22;33786;48.690;9.562;2023-07-31T14:41:47;23.90;86.80
48019;DHT22;33786;48.690;9.562;2023-07-31T14:44:15;23.90;86.50
48019;DHT22;33786;48.690;9.562;2023-07-31T14:46:42;23.90;86.80
48019;DHT22;33786;48.690;9.562;2023-07-31T14:49:10;23.90;87.10
48019;DHT22;33786;48.690;9.562;2023-07-31T14:51:37;24.00;88.50
48019;DHT22;33786;48.690;9.562;2023-07-31T14:54:04;24.00;87.30
48019;DHT22;33786;48.690;9.562;2023-07-31T14:56:31;24.00;88.60
48019;DHT22;33786;48.690;9.562;2023-07-31T14:58:58;24.00;88.10
48019;DHT22;33786;48.690;9.562;2023-07-31T15:01:24;24.00;88.70
48019;DHT22;33786;48.690;9.562;2023-07-31T15:03:52;23.90;88.60
48019;DHT22;33786;48.690;9.562;2023-07-31T15:06:18;23.90;89.20
48019;DHT22;33786;48.690;9.562;2023-07-31T15:08:45;23.90;89.80
48019;DHT22;33786;48.690;9.562;2023-07-31T15:11:12;24.00;90.10
48019;DHT22;33786;48.690;9.562;2023-07-31T15:13:39;24.00;89.70
48019;DHT22;33786;48.690;9.562;2023-07-31T15:16:06;23.90;88.60
48019;DHT22;33786;48.690;9.562;2023-07-31T15:18:33;23.80;90.00
48019;DHT22;33786;48.690;9.562;2023-07-31T15:21:00;23.80;88.90
48019;DHT22;33786;48.690;9.562;2023-07-31T15:23:26;23.60;89.00
48019;DHT22;33786;48.690;9.562;2023-07-31T15:25:53;23.50;88.90
48019;DHT22;33786;48.690;9.562;2023-07-31T15:28:20;23.50;89.40
48019;DHT22;33786;48.690;9.562;2023-07-31T15:30:47;23.60;89.80
48019;DHT22;33786;48.690;9.562;2023-07-31T15:33:15;23.60;88.10
48019;DHT22;33786;48.690;9.562;2023-07-31T15:35:42;23.30;87.30
48019;DHT22;33786;48.690;9.562;2023-07-31T15:38:09;23.20;87.80
48019;DHT22;33786;48.690;9.562;2023-07-31T15:40:38;23.20;86.90
48019;DHT22;33786;48.690;9.562;2023-07-31T15:43:05;23.10;86.40